sensor_id;sensor_type;location;lat;lon;timestamp;P1;durP1;ratioP1;P2;durP2;ratioP2
18973;SDS011;9621;48.690;9.466;2023-02-15T00:01:30;29.83;;;16.30;;
18973;SDS011;9621;48.690;9.466;2023-02-15T00:03:58;32.67;;;16.80;;
18973;SDS011;9621;48.690;9.466;2023-02-15T00:06:28;32.93;;;17.43;;
18973;SDS011;9621;48.690;9.466;2023-02-15T00:08:56;32.50;;;17.10;;
18973;SDS011;9621;48.690;9.466;2023-02-15T00:14:16;32.60;;;17.10;;
18973;SDS011;9621;48.690;9.466;2023-02-15T00:16:45;34.10;;;16.87;;
18973;SDS011;9621;48.690;9.466;2023-02-15T00:19:15;30.10;;;16.27;;
18973;SDS011;9621;48.690;9.466;2023-02-15T00:21:43;34.33;;;17.77;;
18973;SDS011;9621;48.690;9.466;2023-02-15T00:24:15;31.97;;;16.27;;
18973;SDS011;9621;48.690;9.466;2023-02-15T00:26:47;32.40;;;17.83;;
18973;SDS011;9621;48.690;9.466;2023-02-15T00:29:15;34.60;;;18.23;;
18973;SDS011;9621;48.690;9.466;2023-02-15T00:31:46;35.33;;;17.57;;
18973;SDS011;9621;48.690;9.466;2023-02-15T00:34:15;34.13;;;17.07;;
18973;SDS011;9621;48.690;9.466;2023-02-15T00:36:49;31.00;;;16.63;;
18973;SDS011;9621;48.690;9.466;2023-02-15T00:39:17;29.07;;;14.87;;
18973;SDS011;9621;48.690;9.466;2023-02-15T00:41:45;32.33;;;17.03;;
18973;SDS011;9621;48.690;9.466;2023-02-15T00:44:13;29.23;;;16.23;;
18973;SDS011;9621;48.690;9.466;2023-02-15T00:46:41;33.03;;;17.93;;
18973;SDS011;9621;48.690;9.466;2023-02-15T00:49:08;35.37;;;17.60;;
18973;SDS011;9621;48.690;9.466;2023-02-15T00:51:36;31.17;;;16.87;;
18973;SDS011;9621;48.690;9.466;2023-02-15T00:54:04;31.17;;;17.17;;
18973;SDS011;9621;48.690;9.466;2023-02-15T00:56:34;32.70;;;17.70;;
18973;SDS011;9621;48.690;9.466;2023-02-15T00:59:03;30.77;;;16.33;;
18973;SDS011;9621;48.690;9.466;2023-02-15T01:01:45;30.60;;;15.90;;
18973;SDS011;9621;48.690;9.466;2023-02-15T01:04:12;29.37;;;15.87;;
18973;SDS011;9621;48.690;9.466;2023-02-15T01:06:39;29.20;;;16.33;;
18973;SDS011;9621;48.690;9.466;2023-02-15T01:09:08;33.70;;;17.20;;
18973;SDS011;9621;48.690;9.466;2023-02-15T01:11:35;33.90;;;18.57;;
18973;SDS011;9621;48.690;9.466;2023-02-15T01:14:04;32.67;;;17.73;;
18973;SDS011;9621;48.690;9.466;2023-02-15T01:16:32;34.60;;;18.10;;
18973;SDS011;9621;48.690;9.466;2023-02-15T01:18:58;35.27;;;17.90;;
18973;SDS011;9621;48.690;9.466;2023-02-15T01:21:27;34.03;;;18.60;;
18973;SDS011;9621;48.690;9.466;2023-02-15T01:23:54;36.30;;;17.70;;
18973;SDS011;9621;48.690;9.466;2023-02-15T01:26:21;34.93;;;17.70;;
18973;SDS011;9621;48.690;9.466;2023-02-15T01:28:48;33.67;;;18.07;;
18973;SDS011;9621;48.690;9.466;2023-02-15T01:31:17;35.20;;;18.27;;
18973;SDS011;9621;48.690;9.466;2023-02-15T01:33:45;37.27;;;19.10;;
18973;SDS011;9621;48.690;9.466;2023-02-15T01:36:16;31.60;;;17.63;;
18973;SDS011;9621;48.690;9.466;2023-02-15T01:38:44;36.47;;;16.77;;
18973;SDS011;9621;48.690;9.466;2023-02-15T01:41:23;36.80;;;18.00;;
18973;SDS011;9621;48.690;9.466;2023-02-15T01:43:52;32.53;;;17.30;;
18973;SDS011;9621;48.690;9.466;2023-02-15T01:46:27;35.63;;;18.00;;
18973;SDS011;9621;48.690;9.466;2023-02-15T01:49:01;31.67;;;17.07;;
18973;SDS011;9621;48.690;9.466;2023-02-15T01:51:33;30.87;;;16.63;;
18973;SDS011;9621;48.690;9.466;2023-02-15T01:54:01;36.03;;;18.00;;
18973;SDS011;9621;48.690;9.466;2023-02-15T01:56:33;33.13;;;17.53;;
18973;SDS011;9621;48.690;9.466;2023-02-15T01:59:06;35.03;;;17.20;;
18973;SDS011;9621;48.690;9.466;2023-02-15T02:01:37;32.33;;;17.17;;
18973;SDS011;9621;48.690;9.466;2023-02-15T02:04:05;33.30;;;17.07;;
18973;SDS011;9621;48.690;9.466;2023-02-15T02:06:37;35.50;;;17.80;;
18973;SDS011;9621;48.690;9.466;2023-02-15T02:09:06;31.83;;;16.67;;
18973;SDS011;9621;48.690;9.466;2023-02-15T02:11:33;40.93;;;18.47;;
18973;SDS011;9621;48.690;9.466;2023-02-15T02:14:04;33.33;;;16.70;;
18973;SDS011;9621;48.690;9.466;2023-02-15T02:16:36;34.27;;;17.83;;
18973;SDS011;9621;48.690;9.466;2023-02-15T02:25:21;31.70;;;16.13;;
18973;SDS011;9621;48.690;9.466;2023-02-15T02:28:12;30.37;;;16.23;;
18973;SDS011;9621;48.690;9.466;2023-02-15T02:31:04;31.80;;;17.03;;
18973;SDS011;9621;48.690;9.466;2023-02-15T02:33:49;33.40;;;17.03;;
18973;SDS011;9621;48.690;9.466;2023-02-15T02:36:29;33.07;;;16.97;;
18973;SDS011;9621;48.690;9.466;2023-02-15T02:39:06;33.13;;;17.33;;
18973;SDS011;9621;48.690;9.466;2023-02-15T02:41:42;35.83;;;18.13;;
18973;SDS011;9621;48.690;9.466;2023-02-15T02:44:18;33.93;;;17.63;;
18973;SDS011;9621;48.690;9.466;2023-02-15T02:46:51;31.97;;;16.53;;
18973;SDS011;9621;48.690;9.466;2023-02-15T02:49:33;35.87;;;16.70;;
18973;SDS011;9621;48.690;9.466;2023-02-15T02:52:03;32.17;;;16.73;;
18973;SDS011;9621;48.690;9.466;2023-02-15T02:54:35;31.23;;;16.27;;
18973;SDS011;9621;48.690;9.466;2023-02-15T02:57:03;36.90;;;16.80;;
18973;SDS011;9621;48.690;9.466;2023-02-15T02:59:37;33.47;;;17.27;;
18973;SDS011;9621;48.690;9.466;2023-02-15T03:02:09;32.33;;;16.97;;
18973;SDS011;9621;48.690;9.466;2023-02-15T03:04:42;31.47;;;16.60;;
18973;SDS011;9621;48.690;9.466;2023-02-15T03:07:16;31.37;;;17.53;;
18973;SDS011;9621;48.690;9.466;2023-02-15T03:09:47;30.80;;;16.17;;
18973;SDS011;9621;48.690;9.466;2023-02-15T03:12:21;33.80;;;17.33;;
18973;SDS011;9621;48.690;9.466;2023-02-15T03:14:56;31.07;;;17.47;;
18973;SDS011;9621;48.690;9.466;2023-02-15T03:17:32;28.37;;;16.77;;
18973;SDS011;9621;48.690;9.466;2023-02-15T03:20:06;35.70;;;18.00;;
18973;SDS011;9621;48.690;9.466;2023-02-15T03:22:39;34.97;;;16.87;;
18973;SDS011;9621;48.690;9.466;2023-02-15T03:25:13;34.07;;;18.30;;
18973;SDS011;9621;48.690;9.466;2023-02-15T03:27:45;32.67;;;17.20;;
18973;SDS011;9621;48.690;9.466;2023-02-15T03:30:22;32.67;;;16.70;;
18973;SDS011;9621;48.690;9.466;2023-02-15T03:32:50;29.03;;;16.37;;
18973;SDS011;9621;48.690;9.466;2023-02-15T03:35:23;33.67;;;16.67;;
18973;SDS011;9621;48.690;9.466;2023-02-15T03:38:01;33.53;;;16.43;;
18973;SDS011;9621;48.690;9.466;2023-02-15T03:40:33;32.17;;;16.37;;
18973;SDS011;9621;48.690;9.466;2023-02-15T03:43:27;33.07;;;16.20;;
18973;SDS011;9621;48.690;9.466;2023-02-15T03:45:59;29.17;;;15.73;;
18973;SDS011;9621;48.690;9.466;2023-02-15T03:48:35;32.80;;;15.77;;
18973;SDS011;9621;48.690;9.466;2023-02-15T03:51:07;34.73;;;17.03;;
18973;SDS011;9621;48.690;9.466;2023-02-15T03:53:56;38.97;;;17.20;;
18973;SDS011;9621;48.690;9.466;2023-02-15T03:56:25;28.57;;;16.53;;
18973;SDS011;9621;48.690;9.466;2023-02-15T03:58:52;29.50;;;16.33;;
18973;SDS011;9621;48.690;9.466;2023-02-15T04:01:37;31.97;;;17.23;;
18973;SDS011;9621;48.690;9.466;2023-02-15T04:04:34;33.60;;;16.80;;
18973;SDS011;9621;48.690;9.466;2023-02-15T04:07:07;34.37;;;16.90;;
18973;SDS011;9621;48.690;9.466;2023-02-15T04:09:34;31.07;;;16.00;;
18973;SDS011;9621;48.690;9.466;2023-02-15T04:12:19;30.33;;;15.40;;
18973;SDS011;9621;48.690;9.466;2023-02-15T04:14:46;26.93;;;15.50;;
18973;SDS011;9621;48.690;9.466;2023-02-15T04:17:31;34.80;;;16.73;;
18973;SDS011;9621;48.690;9.466;2023-02-15T04:20:00;29.63;;;16.40;;
18973;SDS011;9621;48.690;9.466;2023-02-15T04:22:49;35.43;;;16.30;;
18973;SDS011;9621;48.690;9.466;2023-02-15T04:25:34;31.13;;;15.10;;
18973;SDS011;9621;48.690;9.466;2023-02-15T04:28:01;31.10;;;16.77;;
18973;SDS011;9621;48.690;9.466;2023-02-15T04:30:29;29.47;;;16.43;;
18973;SDS011;9621;48.690;9.466;2023-02-15T04:32:56;32.80;;;17.07;;
18973;SDS011;9621;48.690;9.466;2023-02-15T04:35:23;31.13;;;17.07;;
18973;SDS011;9621;48.690;9.466;2023-02-15T04:37:52;33.20;;;15.53;;
18973;SDS011;9621;48.690;9.466;2023-02-15T04:40:20;26.83;;;15.53;;
18973;SDS011;9621;48.690;9.466;2023-02-15T04:42:47;27.93;;;16.43;;
18973;SDS011;9621;48.690;9.466;2023-02-15T04:45:15;27.80;;;14.87;;
18973;SDS011;9621;48.690;9.466;2023-02-15T04:47:42;31.93;;;15.77;;
18973;SDS011;9621;48.690;9.466;2023-02-15T04:50:13;31.13;;;15.40;;
18973;SDS011;9621;48.690;9.466;2023-02-15T04:52:43;34.83;;;16.03;;
18973;SDS011;9621;48.690;9.466;2023-02-15T04:55:12;28.90;;;16.20;;
18973;SDS011;9621;48.690;9.466;2023-02-15T04:57:39;32.57;;;16.53;;
18973;SDS011;9621;48.690;9.466;2023-02-15T05:00:15;33.50;;;17.37;;
18973;SDS011;9621;48.690;9.466;2023-02-15T05:02:44;30.87;;;16.70;;
18973;SDS011;9621;48.690;9.466;2023-02-15T05:05:11;31.07;;;15.50;;
18973;SDS011;9621;48.690;9.466;2023-02-15T05:07:40;30.70;;;15.97;;
18973;SDS011;9621;48.690;9.466;2023-02-15T05:10:07;27.03;;;15.63;;
18973;SDS011;9621;48.690;9.466;2023-02-15T05:15:32;31.70;;;14.77;;
18973;SDS011;9621;48.690;9.466;2023-02-15T05:17:59;30.93;;;15.47;;
18973;SDS011;9621;48.690;9.466;2023-02-15T05:20:32;30.70;;;15.13;;
18973;SDS011;9621;48.690;9.466;2023-02-15T05:22:59;30.03;;;15.43;;
18973;SDS011;9621;48.690;9.466;2023-02-15T05:25:29;28.70;;;15.50;;
18973;SDS011;9621;48.690;9.466;2023-02-15T05:28:15;30.03;;;15.73;;
18973;SDS011;9621;48.690;9.466;2023-02-15T05:30:48;31.43;;;16.57;;
18973;SDS011;9621;48.690;9.466;2023-02-15T05:33:20;29.70;;;15.67;;
18973;SDS011;9621;48.690;9.466;2023-02-15T05:35:47;31.73;;;16.60;;
18973;SDS011;9621;48.690;9.466;2023-02-15T05:38:14;32.27;;;16.13;;
18973;SDS011;9621;48.690;9.466;2023-02-15T05:40:41;29.23;;;15.90;;
18973;SDS011;9621;48.690;9.466;2023-02-15T05:43:08;36.97;;;16.97;;
18973;SDS011;9621;48.690;9.466;2023-02-15T05:45:37;27.33;;;14.83;;
18973;SDS011;9621;48.690;9.466;2023-02-15T05:48:07;28.03;;;15.03;;
18973;SDS011;9621;48.690;9.466;2023-02-15T05:50:34;28.33;;;15.83;;
18973;SDS011;9621;48.690;9.466;2023-02-15T05:53:01;32.13;;;16.33;;
18973;SDS011;9621;48.690;9.466;2023-02-15T05:55:28;28.87;;;15.77;;
18973;SDS011;9621;48.690;9.466;2023-02-15T05:57:55;31.30;;;15.67;;
18973;SDS011;9621;48.690;9.466;2023-02-15T06:00:25;32.17;;;14.97;;
18973;SDS011;9621;48.690;9.466;2023-02-15T06:02:54;30.70;;;15.83;;
18973;SDS011;9621;48.690;9.466;2023-02-15T06:05:21;30.70;;;16.47;;
18973;SDS011;9621;48.690;9.466;2023-02-15T06:07:48;25.17;;;13.97;;
18973;SDS011;9621;48.690;9.466;2023-02-15T06:10:20;27.73;;;14.97;;
18973;SDS011;9621;48.690;9.466;2023-02-15T06:12:50;30.47;;;15.67;;
18973;SDS011;9621;48.690;9.466;2023-02-15T06:15:17;34.43;;;16.30;;
18973;SDS011;9621;48.690;9.466;2023-02-15T06:17:44;31.37;;;16.00;;
18973;SDS011;9621;48.690;9.466;2023-02-15T06:20:13;30.10;;;15.63;;
18973;SDS011;9621;48.690;9.466;2023-02-15T06:22:42;30.67;;;15.13;;
18973;SDS011;9621;48.690;9.466;2023-02-15T06:25:11;30.40;;;16.03;;
18973;SDS011;9621;48.690;9.466;2023-02-15T06:27:44;30.07;;;15.27;;
18973;SDS011;9621;48.690;9.466;2023-02-15T06:30:11;26.53;;;14.37;;
18973;SDS011;9621;48.690;9.466;2023-02-15T06:32:40;31.10;;;15.20;;
18973;SDS011;9621;48.690;9.466;2023-02-15T06:35:07;29.47;;;16.03;;
18973;SDS011;9621;48.690;9.466;2023-02-15T06:37:36;30.87;;;15.10;;
18973;SDS011;9621;48.690;9.466;2023-02-15T06:40:07;28.97;;;15.40;;
18973;SDS011;9621;48.690;9.466;2023-02-15T06:42:35;30.27;;;15.40;;
18973;SDS011;9621;48.690;9.466;2023-02-15T06:45:02;27.40;;;14.50;;
18973;SDS011;9621;48.690;9.466;2023-02-15T06:47:30;27.83;;;15.17;;
18973;SDS011;9621;48.690;9.466;2023-02-15T06:49:57;31.30;;;15.37;;
18973;SDS011;9621;48.690;9.466;2023-02-15T06:52:25;25.47;;;14.13;;
18973;SDS011;9621;48.690;9.466;2023-02-15T06:54:56;31.33;;;16.07;;
18973;SDS011;9621;48.690;9.466;2023-02-15T06:57:24;29.80;;;15.67;;
18973;SDS011;9621;48.690;9.466;2023-02-15T06:59:53;27.03;;;15.30;;
18973;SDS011;9621;48.690;9.466;2023-02-15T07:02:22;31.33;;;15.90;;
18973;SDS011;9621;48.690;9.466;2023-02-15T07:04:56;28.87;;;16.47;;
18973;SDS011;9621;48.690;9.466;2023-02-15T07:07:39;30.13;;;16.20;;
18973;SDS011;9621;48.690;9.466;2023-02-15T07:10:08;29.23;;;14.77;;
18973;SDS011;9621;48.690;9.466;2023-02-15T07:12:38;30.90;;;15.97;;
18973;SDS011;9621;48.690;9.466;2023-02-15T07:15:07;29.10;;;15.90;;
18973;SDS011;9621;48.690;9.466;2023-02-15T07:17:35;32.50;;;16.27;;
18973;SDS011;9621;48.690;9.466;2023-02-15T07:20:04;28.77;;;15.23;;
18973;SDS011;9621;48.690;9.466;2023-02-15T07:22:33;28.27;;;15.13;;
18973;SDS011;9621;48.690;9.466;2023-02-15T07:25:03;29.43;;;16.20;;
18973;SDS011;9621;48.690;9.466;2023-02-15T07:27:37;31.97;;;16.20;;
18973;SDS011;9621;48.690;9.466;2023-02-15T07:30:10;29.57;;;15.17;;
18973;SDS011;9621;48.690;9.466;2023-02-15T07:32:50;29.27;;;16.03;;
18973;SDS011;9621;48.690;9.466;2023-02-15T07:35:46;25.80;;;14.83;;
18973;SDS011;9621;48.690;9.466;2023-02-15T07:38:16;27.97;;;15.47;;
18973;SDS011;9621;48.690;9.466;2023-02-15T07:40:45;31.37;;;15.27;;
18973;SDS011;9621;48.690;9.466;2023-02-15T07:43:15;29.47;;;15.83;;
18973;SDS011;9621;48.690;9.466;2023-02-15T07:45:43;31.70;;;16.10;;
18973;SDS011;9621;48.690;9.466;2023-02-15T07:48:10;27.43;;;15.33;;
18973;SDS011;9621;48.690;9.466;2023-02-15T07:50:37;29.80;;;15.87;;
18973;SDS011;9621;48.690;9.466;2023-02-15T07:53:04;28.17;;;15.03;;
18973;SDS011;9621;48.690;9.466;2023-02-15T07:55:31;27.13;;;14.63;;
18973;SDS011;9621;48.690;9.466;2023-02-15T07:57:58;24.53;;;14.63;;
18973;SDS011;9621;48.690;9.466;2023-02-15T08:00:26;28.30;;;14.97;;
18973;SDS011;9621;48.690;9.466;2023-02-15T08:02:55;21.93;;;14.73;;
18973;SDS011;9621;48.690;9.466;2023-02-15T08:05:41;28.33;;;15.10;;
18973;SDS011;9621;48.690;9.466;2023-02-15T08:08:09;22.70;;;14.33;;
18973;SDS011;9621;48.690;9.466;2023-02-15T08:10:56;24.73;;;14.83;;
18973;SDS011;9621;48.690;9.466;2023-02-15T08:13:42;22.40;;;13.83;;
18973;SDS011;9621;48.690;9.466;2023-02-15T08:16:19;24.83;;;14.97;;
18973;SDS011;9621;48.690;9.466;2023-02-15T08:18:48;23.73;;;14.50;;
18973;SDS011;9621;48.690;9.466;2023-02-15T08:21:15;22.80;;;13.53;;
18973;SDS011;9621;48.690;9.466;2023-02-15T08:23:42;22.97;;;13.90;;
18973;SDS011;9621;48.690;9.466;2023-02-15T08:26:09;25.70;;;13.90;;
18973;SDS011;9621;48.690;9.466;2023-02-15T08:28:36;24.27;;;15.03;;
18973;SDS011;9621;48.690;9.466;2023-02-15T08:31:04;25.97;;;15.07;;
18973;SDS011;9621;48.690;9.466;2023-02-15T08:33:33;22.87;;;14.57;;
18973;SDS011;9621;48.690;9.466;2023-02-15T08:36:04;21.10;;;13.83;;
18973;SDS011;9621;48.690;9.466;2023-02-15T08:38:32;23.23;;;13.90;;
18973;SDS011;9621;48.690;9.466;2023-02-15T08:41:08;25.63;;;14.13;;
18973;SDS011;9621;48.690;9.466;2023-02-15T08:43:36;21.13;;;14.10;;
18973;SDS011;9621;48.690;9.466;2023-02-15T08:46:03;20.83;;;13.60;;
18973;SDS011;9621;48.690;9.466;2023-02-15T08:48:32;20.73;;;14.07;;
18973;SDS011;9621;48.690;9.466;2023-02-15T08:51:03;21.37;;;13.70;;
18973;SDS011;9621;48.690;9.466;2023-02-15T08:53:32;26.20;;;15.00;;
18973;SDS011;9621;48.690;9.466;2023-02-15T08:55:59;23.73;;;14.60;;
18973;SDS011;9621;48.690;9.466;2023-02-15T08:58:27;22.30;;;14.50;;
18973;SDS011;9621;48.690;9.466;2023-02-15T09:00:55;22.13;;;14.20;;
18973;SDS011;9621;48.690;9.466;2023-02-15T09:03:22;23.17;;;14.70;;
18973;SDS011;9621;48.690;9.466;2023-02-15T09:05:57;24.10;;;15.40;;
18973;SDS011;9621;48.690;9.466;2023-02-15T09:08:25;24.37;;;15.73;;
18973;SDS011;9621;48.690;9.466;2023-02-15T09:10:52;23.60;;;15.50;;
18973;SDS011;9621;48.690;9.466;2023-02-15T09:13:19;22.77;;;15.30;;
18973;SDS011;9621;48.690;9.466;2023-02-15T09:15:47;26.70;;;15.93;;
18973;SDS011;9621;48.690;9.466;2023-02-15T09:18:13;27.13;;;16.50;;
18973;SDS011;9621;48.690;9.466;2023-02-15T09:20:42;27.40;;;16.37;;
18973;SDS011;9621;48.690;9.466;2023-02-15T09:23:11;27.27;;;16.63;;
18973;SDS011;9621;48.690;9.466;2023-02-15T09:25:39;24.87;;;16.03;;
18973;SDS011;9621;48.690;9.466;2023-02-15T09:28:07;24.13;;;15.10;;
18973;SDS011;9621;48.690;9.466;2023-02-15T09:30:34;27.47;;;16.30;;
18973;SDS011;9621;48.690;9.466;2023-02-15T09:33:01;22.60;;;14.80;;
18973;SDS011;9621;48.690;9.466;2023-02-15T09:35:28;23.70;;;15.40;;
18973;SDS011;9621;48.690;9.466;2023-02-15T09:37:55;22.87;;;14.63;;
18973;SDS011;9621;48.690;9.466;2023-02-15T09:40:23;21.33;;;14.03;;
18973;SDS011;9621;48.690;9.466;2023-02-15T09:43:00;23.70;;;13.03;;
18973;SDS011;9621;48.690;9.466;2023-02-15T09:45:58;21.97;;;14.07;;
18973;SDS011;9621;48.690;9.466;2023-02-15T09:48:43;22.13;;;13.57;;
18973;SDS011;9621;48.690;9.466;2023-02-15T09:54:26;18.75;;;13.05;;
18973;SDS011;9621;48.690;9.466;2023-02-15T09:57:04;18.63;;;12.98;;
18973;SDS011;9621;48.690;9.466;2023-02-15T09:59:41;21.15;;;12.85;;
18973;SDS011;9621;48.690;9.466;2023-02-15T10:02:20;19.40;;;13.32;;
18973;SDS011;9621;48.690;9.466;2023-02-15T10:04:56;19.90;;;13.30;;
18973;SDS011;9621;48.690;9.466;2023-02-15T10:07:38;18.65;;;12.20;;
18973;SDS011;9621;48.690;9.466;2023-02-15T10:10:24;18.25;;;12.27;;
18973;SDS011;9621;48.690;9.466;2023-02-15T10:13:00;19.02;;;13.23;;
18973;SDS011;9621;48.690;9.466;2023-02-15T10:15:45;18.50;;;11.82;;
18973;SDS011;9621;48.690;9.466;2023-02-15T10:21:21;16.17;;;11.25;;
18973;SDS011;9621;48.690;9.466;2023-02-15T10:27:05;19.00;;;11.88;;
18973;SDS011;9621;48.690;9.466;2023-02-15T10:29:39;16.35;;;12.00;;
18973;SDS011;9621;48.690;9.466;2023-02-15T10:32:16;15.82;;;11.35;;
18973;SDS011;9621;48.690;9.466;2023-02-15T10:34:51;19.15;;;12.02;;
18973;SDS011;9621;48.690;9.466;2023-02-15T10:40:15;16.83;;;11.55;;
18973;SDS011;9621;48.690;9.466;2023-02-15T10:42:54;16.67;;;11.25;;
18973;SDS011;9621;48.690;9.466;2023-02-15T10:45:49;15.88;;;10.73;;
18973;SDS011;9621;48.690;9.466;2023-02-15T10:48:30;17.55;;;11.02;;
18973;SDS011;9621;48.690;9.466;2023-02-15T10:51:08;16.05;;;11.20;;
18973;SDS011;9621;48.690;9.466;2023-02-15T10:53:45;15.60;;;10.50;;
18973;SDS011;9621;48.690;9.466;2023-02-15T10:56:28;16.98;;;11.82;;
18973;SDS011;9621;48.690;9.466;2023-02-15T10:59:10;14.18;;;10.45;;
18973;SDS011;9621;48.690;9.466;2023-02-15T11:01:54;15.13;;;10.70;;
18973;SDS011;9621;48.690;9.466;2023-02-15T11:04:41;14.55;;;10.90;;
18973;SDS011;9621;48.690;9.466;2023-02-15T11:07:18;14.45;;;10.32;;
18973;SDS011;9621;48.690;9.466;2023-02-15T11:09:49;15.43;;;10.75;;
18973;SDS011;9621;48.690;9.466;2023-02-15T11:12:21;16.02;;;10.35;;
18973;SDS011;9621;48.690;9.466;2023-02-15T11:14:52;17.48;;;11.68;;
18973;SDS011;9621;48.690;9.466;2023-02-15T11:17:26;15.48;;;10.95;;
18973;SDS011;9621;48.690;9.466;2023-02-15T11:20:02;16.65;;;11.10;;
18973;SDS011;9621;48.690;9.466;2023-02-15T11:22:41;15.23;;;10.90;;
18973;SDS011;9621;48.690;9.466;2023-02-15T11:25:14;16.92;;;11.35;;
18973;SDS011;9621;48.690;9.466;2023-02-15T11:27:45;14.65;;;10.55;;
18973;SDS011;9621;48.690;9.466;2023-02-15T11:30:15;15.20;;;10.63;;
18973;SDS011;9621;48.690;9.466;2023-02-15T11:32:47;18.15;;;10.65;;
18973;SDS011;9621;48.690;9.466;2023-02-15T11:35:19;15.20;;;10.88;;
18973;SDS011;9621;48.690;9.466;2023-02-15T11:37:51;14.82;;;10.35;;
18973;SDS011;9621;48.690;9.466;2023-02-15T11:40:24;15.18;;;10.77;;
18973;SDS011;9621;48.690;9.466;2023-02-15T11:42:55;15.55;;;10.73;;
18973;SDS011;9621;48.690;9.466;2023-02-15T11:45:26;15.00;;;10.52;;
18973;SDS011;9621;48.690;9.466;2023-02-15T11:47:56;15.32;;;10.63;;
18973;SDS011;9621;48.690;9.466;2023-02-15T11:50:25;16.08;;;10.85;;
18973;SDS011;9621;48.690;9.466;2023-02-15T11:52:56;15.40;;;10.55;;
18973;SDS011;9621;48.690;9.466;2023-02-15T11:55:25;17.85;;;10.98;;
18973;SDS011;9621;48.690;9.466;2023-02-15T11:57:55;14.00;;;9.82;;
18973;SDS011;9621;48.690;9.466;2023-02-15T12:00:30;17.42;;;10.80;;
18973;SDS011;9621;48.690;9.466;2023-02-15T12:03:03;16.58;;;10.45;;
18973;SDS011;9621;48.690;9.466;2023-02-15T12:05:40;17.52;;;10.68;;
18973;SDS011;9621;48.690;9.466;2023-02-15T12:08:12;16.02;;;10.73;;
18973;SDS011;9621;48.690;9.466;2023-02-15T12:10:44;14.55;;;9.75;;
18973;SDS011;9621;48.690;9.466;2023-02-15T12:13:23;14.20;;;10.32;;
18973;SDS011;9621;48.690;9.466;2023-02-15T12:15:51;15.68;;;10.02;;
18973;SDS011;9621;48.690;9.466;2023-02-15T12:18:24;14.05;;;9.73;;
18973;SDS011;9621;48.690;9.466;2023-02-15T12:21:02;16.75;;;9.98;;
18973;SDS011;9621;48.690;9.466;2023-02-15T12:23:32;13.82;;;9.57;;
18973;SDS011;9621;48.690;9.466;2023-02-15T12:26:00;15.05;;;10.05;;
18973;SDS011;9621;48.690;9.466;2023-02-15T12:28:30;12.27;;;9.20;;
18973;SDS011;9621;48.690;9.466;2023-02-15T12:30:59;12.57;;;9.88;;
18973;SDS011;9621;48.690;9.466;2023-02-15T12:33:31;13.70;;;9.10;;
18973;SDS011;9621;48.690;9.466;2023-02-15T12:36:01;13.75;;;9.40;;
18973;SDS011;9621;48.690;9.466;2023-02-15T12:38:35;13.50;;;8.57;;
18973;SDS011;9621;48.690;9.466;2023-02-15T12:41:03;15.70;;;10.23;;
18973;SDS011;9621;48.690;9.466;2023-02-15T12:43:32;10.95;;;8.48;;
18973;SDS011;9621;48.690;9.466;2023-02-15T12:46:14;14.38;;;8.48;;
18973;SDS011;9621;48.690;9.466;2023-02-15T12:48:48;13.13;;;8.68;;
18973;SDS011;9621;48.690;9.466;2023-02-15T12:51:41;14.68;;;8.60;;
18973;SDS011;9621;48.690;9.466;2023-02-15T12:54:16;11.38;;;8.13;;
18973;SDS011;9621;48.690;9.466;2023-02-15T12:57:15;10.82;;;8.23;;
18973;SDS011;9621;48.690;9.466;2023-02-15T12:59:50;9.63;;;6.70;;
18973;SDS011;9621;48.690;9.466;2023-02-15T13:02:20;11.02;;;7.35;;
18973;SDS011;9621;48.690;9.466;2023-02-15T13:04:51;9.65;;;6.97;;
18973;SDS011;9621;48.690;9.466;2023-02-15T13:07:20;10.45;;;6.85;;
18973;SDS011;9621;48.690;9.466;2023-02-15T13:09:47;8.80;;;7.03;;
18973;SDS011;9621;48.690;9.466;2023-02-15T13:12:17;12.48;;;8.07;;
18973;SDS011;9621;48.690;9.466;2023-02-15T13:14:48;10.70;;;7.25;;
18973;SDS011;9621;48.690;9.466;2023-02-15T13:17:18;11.85;;;7.50;;
18973;SDS011;9621;48.690;9.466;2023-02-15T13:19:49;11.02;;;7.63;;
18973;SDS011;9621;48.690;9.466;2023-02-15T13:22:21;11.82;;;7.95;;
18973;SDS011;9621;48.690;9.466;2023-02-15T13:24:51;11.02;;;6.80;;
18973;SDS011;9621;48.690;9.466;2023-02-15T13:27:23;11.23;;;7.28;;
18973;SDS011;9621;48.690;9.466;2023-02-15T13:29:56;10.45;;;7.22;;
18973;SDS011;9621;48.690;9.466;2023-02-15T13:32:28;12.60;;;7.85;;
18973;SDS011;9621;48.690;9.466;2023-02-15T13:34:59;10.10;;;7.55;;
18973;SDS011;9621;48.690;9.466;2023-02-15T13:37:34;12.25;;;7.43;;
18973;SDS011;9621;48.690;9.466;2023-02-15T13:40:12;11.60;;;6.70;;
18973;SDS011;9621;48.690;9.466;2023-02-15T13:42:44;9.80;;;7.10;;
18973;SDS011;9621;48.690;9.466;2023-02-15T13:45:21;12.65;;;7.70;;
18973;SDS011;9621;48.690;9.466;2023-02-15T13:48:03;12.30;;;7.65;;
18973;SDS011;9621;48.690;9.466;2023-02-15T13:50:55;11.68;;;7.75;;
18973;SDS011;9621;48.690;9.466;2023-02-15T13:53:40;12.38;;;7.28;;
18973;SDS011;9621;48.690;9.466;2023-02-15T13:56:22;11.00;;;7.55;;
18973;SDS011;9621;48.690;9.466;2023-02-15T13:59:11;12.13;;;7.75;;
18973;SDS011;9621;48.690;9.466;2023-02-15T14:01:47;11.98;;;7.82;;
18973;SDS011;9621;48.690;9.466;2023-02-15T14:07:18;16.25;;;8.10;;
18973;SDS011;9621;48.690;9.466;2023-02-15T14:10:06;13.77;;;7.82;;
18973;SDS011;9621;48.690;9.466;2023-02-15T14:12:55;16.35;;;8.02;;
18973;SDS011;9621;48.690;9.466;2023-02-15T14:15:38;14.93;;;8.55;;
18973;SDS011;9621;48.690;9.466;2023-02-15T14:18:12;11.85;;;8.25;;
18973;SDS011;9621;48.690;9.466;2023-02-15T14:20:50;17.15;;;8.68;;
18973;SDS011;9621;48.690;9.466;2023-02-15T14:23:29;13.68;;;8.50;;
18973;SDS011;9621;48.690;9.466;2023-02-15T14:26:09;15.40;;;8.30;;
18973;SDS011;9621;48.690;9.466;2023-02-15T14:28:43;13.93;;;8.30;;
18973;SDS011;9621;48.690;9.466;2023-02-15T14:31:16;11.60;;;7.35;;
18973;SDS011;9621;48.690;9.466;2023-02-15T14:33:50;11.90;;;7.90;;
18973;SDS011;9621;48.690;9.466;2023-02-15T14:36:21;14.57;;;8.27;;
18973;SDS011;9621;48.690;9.466;2023-02-15T14:38:57;13.48;;;7.70;;
18973;SDS011;9621;48.690;9.466;2023-02-15T14:41:52;12.88;;;8.13;;
18973;SDS011;9621;48.690;9.466;2023-02-15T14:44:23;12.15;;;7.90;;
18973;SDS011;9621;48.690;9.466;2023-02-15T14:46:57;12.15;;;7.47;;
18973;SDS011;9621;48.690;9.466;2023-02-15T14:49:31;12.63;;;7.82;;
18973;SDS011;9621;48.690;9.466;2023-02-15T14:52:02;15.35;;;7.85;;
18973;SDS011;9621;48.690;9.466;2023-02-15T14:57:32;18.23;;;8.02;;
18973;SDS011;9621;48.690;9.466;2023-02-15T15:00:00;14.60;;;8.55;;
18973;SDS011;9621;48.690;9.466;2023-02-15T15:02:42;15.25;;;7.90;;
18973;SDS011;9621;48.690;9.466;2023-02-15T15:05:14;12.35;;;7.82;;
18973;SDS011;9621;48.690;9.466;2023-02-15T15:07:46;15.85;;;8.13;;
18973;SDS011;9621;48.690;9.466;2023-02-15T15:22:38;13.02;;;8.30;;
18973;SDS011;9621;48.690;9.466;2023-02-15T15:25:08;12.10;;;8.43;;
18973;SDS011;9621;48.690;9.466;2023-02-15T15:27:48;13.48;;;7.47;;
18973;SDS011;9621;48.690;9.466;2023-02-15T15:42:38;11.20;;;7.47;;
18973;SDS011;9621;48.690;9.466;2023-02-15T15:45:26;15.80;;;8.77;;
18973;SDS011;9621;48.690;9.466;2023-02-15T15:48:26;15.32;;;8.20;;
18973;SDS011;9621;48.690;9.466;2023-02-15T15:50:59;12.73;;;7.70;;
18973;SDS011;9621;48.690;9.466;2023-02-15T15:53:29;19.25;;;7.85;;
18973;SDS011;9621;48.690;9.466;2023-02-15T15:56:02;43.95;;;35.78;;
18973;SDS011;9621;48.690;9.466;2023-02-15T15:58:34;24.23;;;16.77;;
18973;SDS011;9621;48.690;9.466;2023-02-15T16:01:03;18.23;;;10.98;;
18973;SDS011;9621;48.690;9.466;2023-02-15T16:03:33;19.55;;;9.27;;
18973;SDS011;9621;48.690;9.466;2023-02-15T16:06:01;12.90;;;7.60;;